sensor_id;sensor_type;location;lat;lon;timestamp;pressure;altitude;pressure_sealevel;temperature;humidity
6038;BME280;3047;42.600;23.470;2023-02-19T00:01:27;93341.31;;;7.65;74.43
6038;BME280;3047;42.600;23.470;2023-02-19T00:03:55;93333.03;;;7.57;74.66
6038;BME280;3047;42.600;23.470;2023-02-19T00:06:23;93342.13;;;7.65;73.53
6038;BME280;3047;42.600;23.470;2023-02-19T00:08:50;93343.66;;;7.77;72.58
6038;BME280;3047;42.600;23.470;2023-02-19T00:11:19;93306.09;;;7.65;72.60
6038;BME280;3047;42.600;23.470;2023-02-19T00:13:48;93337.00;;;7.73;73.25
6038;BME280;3047;42.600;23.470;2023-02-19T00:16:18;93336.00;;;7.86;72.70
6038;BME280;3047;42.600;23.470;2023-02-19T00:18:46;93336.09;;;7.79;72.90
6038;BME280;3047;42.600;23.470;2023-02-19T00:21:13;93332.78;;;7.75;73.83
6038;BME280;3047;42.600;23.470;2023-02-19T00:23:40;93320.84;;;7.89;71.53
6038;BME280;3047;42.600;23.470;2023-02-19T00:26:08;93333.63;;;7.76;73.44
6038;BME280;3047;42.600;23.470;2023-02-19T00:28:35;93320.50;;;7.55;75.11
6038;BME280;3047;42.600;23.470;2023-02-19T00:31:06;93324.47;;;7.72;74.78
6038;BME280;3047;42.600;23.470;2023-02-19T00:33:34;93334.66;;;7.61;75.27
6038;BME280;3047;42.600;23.470;2023-02-19T00:36:02;93296.38;;;7.42;75.53
6038;BME280;3047;42.600;23.470;2023-02-19T00:38:29;93313.03;;;7.49;76.80
6038;BME280;3047;42.600;23.470;2023-02-19T00:40:57;93306.34;;;7.48;75.90
6038;BME280;3047;42.600;23.470;2023-02-19T00:43:25;93319.94;;;7.33;76.75
6038;BME280;3047;42.600;23.470;2023-02-19T00:45:52;93309.03;;;7.34;76.08
6038;BME280;3047;42.600;23.470;2023-02-19T00:48:18;93306.50;;;7.37;76.33
6038;BME280;3047;42.600;23.470;2023-02-19T00:50:46;93309.06;;;7.31;77.46
6038;BME280;3047;42.600;23.470;2023-02-19T00:53:13;93292.63;;;7.07;78.35
6038;BME280;3047;42.600;23.470;2023-02-19T00:55:40;93291.72;;;7.11;78.84
6038;BME280;3047;42.600;23.470;2023-02-19T00:58:07;93107.38;;;5.97;78.11
6038;BME280;3047;42.600;23.470;2023-02-19T01:00:37;93277.66;;;6.98;78.87
6038;BME280;3047;42.600;23.470;2023-02-19T01:03:04;93294.38;;;6.99;79.33
6038;BME280;3047;42.600;23.470;2023-02-19T01:05:31;93285.16;;;7.00;78.65
6038;BME280;3047;42.600;23.470;2023-02-19T01:07:59;93271.06;;;6.88;78.95
6038;BME280;3047;42.600;23.470;2023-02-19T01:10:25;93304.38;;;7.04;79.18
6038;BME280;3047;42.600;23.470;2023-02-19T01:12:52;93247.06;;;6.68;79.42
6038;BME280;3047;42.600;23.470;2023-02-19T01:15:19;93273.66;;;6.82;79.45
6038;BME280;3047;42.600;23.470;2023-02-19T01:17:46;93285.25;;;6.93;78.47
6038;BME280;3047;42.600;23.470;2023-02-19T01:20:12;93288.72;;;6.83;79.31
6038;BME280;3047;42.600;23.470;2023-02-19T01:22:39;93285.44;;;6.75;80.41
6038;BME280;3047;42.600;23.470;2023-02-19T01:25:07;93273.53;;;6.92;79.51
6038;BME280;3047;42.600;23.470;2023-02-19T01:27:34;93271.84;;;6.94;79.12
6038;BME280;3047;42.600;23.470;2023-02-19T01:30:01;93273.44;;;7.00;79.23
6038;BME280;3047;42.600;23.470;2023-02-19T01:32:30;93274.38;;;6.91;79.78
6038;BME280;3047;42.600;23.470;2023-02-19T01:34:57;93276.03;;;6.92;79.11
6038;BME280;3047;42.600;23.470;2023-02-19T01:37:24;93259.63;;;6.65;79.90
6038;BME280;3047;42.600;23.470;2023-02-19T01:39:50;93298.72;;;6.86;80.09
6038;BME280;3047;42.600;23.470;2023-02-19T01:42:18;93304.75;;;6.70;81.77
6038;BME280;3047;42.600;23.470;2023-02-19T01:45:18;93317.97;;;6.86;81.17
6038;BME280;3047;42.600;23.470;2023-02-19T01:47:50;93265.72;;;6.41;80.34
6038;BME280;3047;42.600;23.470;2023-02-19T01:50:19;93329.91;;;6.64;81.73
6038;BME280;3047;42.600;23.470;2023-02-19T01:52:46;93343.31;;;6.60;81.47
6038;BME280;3047;42.600;23.470;2023-02-19T01:55:13;93337.63;;;6.46;81.90
6038;BME280;3047;42.600;23.470;2023-02-19T01:57:44;93361.78;;;6.57;81.03
6038;BME280;3047;42.600;23.470;2023-02-19T02:00:14;93323.53;;;6.32;82.22
6038;BME280;3047;42.600;23.470;2023-02-19T02:02:44;93360.06;;;6.59;81.62
6038;BME280;3047;42.600;23.470;2023-02-19T02:05:18;93340.03;;;6.56;80.29
6038;BME280;3047;42.600;23.470;2023-02-19T02:07:47;93357.38;;;6.81;78.49
6038;BME280;3047;42.600;23.470;2023-02-19T02:10:31;93348.03;;;6.92;78.50
6038;BME280;3047;42.600;23.470;2023-02-19T02:13:00;93340.47;;;6.95;77.82
6038;BME280;3047;42.600;23.470;2023-02-19T02:15:31;93296.47;;;6.62;78.56
6038;BME280;3047;42.600;23.470;2023-02-19T02:18:05;93319.84;;;6.67;78.61
6038;BME280;3047;42.600;23.470;2023-02-19T02:20:43;93337.19;;;6.90;78.25
6038;BME280;3047;42.600;23.470;2023-02-19T02:23:15;93308.78;;;6.86;76.90
6038;BME280;3047;42.600;23.470;2023-02-19T02:26:10;93340.41;;;7.03;77.71
6038;BME280;3047;42.600;23.470;2023-02-19T02:31:40;93322.19;;;6.85;78.40
6038;BME280;3047;42.600;23.470;2023-02-19T02:34:11;93296.34;;;6.74;77.49
6038;BME280;3047;42.600;23.470;2023-02-19T02:36:42;93323.72;;;6.97;77.77
6038;BME280;3047;42.600;23.470;2023-02-19T02:39:11;93322.00;;;6.99;79.08
6038;BME280;3047;42.600;23.470;2023-02-19T02:41:41;93318.72;;;6.97;79.11
6038;BME280;3047;42.600;23.470;2023-02-19T02:44:09;93281.41;;;6.62;78.90
6038;BME280;3047;42.600;23.470;2023-02-19T02:46:39;93320.53;;;6.81;79.49
6038;BME280;3047;42.600;23.470;2023-02-19T02:49:11;93280.53;;;6.66;79.54
6038;BME280;3047;42.600;23.470;2023-02-19T02:51:42;93290.44;;;6.78;79.70
6038;BME280;3047;42.600;23.470;2023-02-19T02:54:15;93326.25;;;6.92;79.35
6038;BME280;3047;42.600;23.470;2023-02-19T02:57:01;93302.16;;;6.79;79.43
6038;BME280;3047;42.600;23.470;2023-02-19T02:59:31;93330.31;;;7.06;78.38
6038;BME280;3047;42.600;23.470;2023-02-19T03:02:04;93288.03;;;6.69;79.15
6038;BME280;3047;42.600;23.470;2023-02-19T03:04:42;93323.72;;;6.97;78.69
6038;BME280;3047;42.600;23.470;2023-02-19T03:07:25;93301.97;;;6.98;77.30
6038;BME280;3047;42.600;23.470;2023-02-19T03:09:55;93334.38;;;7.16;76.79
6038;BME280;3047;42.600;23.470;2023-02-19T03:12:24;93326.88;;;7.13;76.93
6038;BME280;3047;42.600;23.470;2023-02-19T03:15:12;93332.75;;;7.13;77.44
6038;BME280;3047;42.600;23.470;2023-02-19T03:18:00;93305.31;;;6.95;76.92
6038;BME280;3047;42.600;23.470;2023-02-19T03:20:49;93321.81;;;7.16;76.51
6038;BME280;3047;42.600;23.470;2023-02-19T03:23:19;93324.34;;;7.17;76.91
6038;BME280;3047;42.600;23.470;2023-02-19T03:26:08;93327.56;;;7.27;75.47
6038;BME280;3047;42.600;23.470;2023-02-19T03:28:37;93325.97;;;7.22;76.51
6038;BME280;3047;42.600;23.470;2023-02-19T03:31:23;93340.19;;;7.19;76.87
6038;BME280;3047;42.600;23.470;2023-02-19T03:33:56;93326.72;;;7.27;76.10
6038;BME280;3047;42.600;23.470;2023-02-19T03:36:28;93345.06;;;7.35;75.68
6038;BME280;3047;42.600;23.470;2023-02-19T03:39:01;93352.59;;;7.35;76.32
6038;BME280;3047;42.600;23.470;2023-02-19T03:41:32;93349.94;;;7.47;74.69
6038;BME280;3047;42.600;23.470;2023-02-19T03:44:06;93327.38;;;7.42;74.88
6038;BME280;3047;42.600;23.470;2023-02-19T03:46:38;93357.31;;;7.59;73.89
6038;BME280;3047;42.600;23.470;2023-02-19T03:49:14;93343.22;;;7.48;75.32
6038;BME280;3047;42.600;23.470;2023-02-19T03:51:47;93346.50;;;7.53;75.02
6038;BME280;3047;42.600;23.470;2023-02-19T03:54:19;93357.44;;;7.49;76.48
6038;BME280;3047;42.600;23.470;2023-02-19T03:56:51;93315.94;;;7.18;76.46
6038;BME280;3047;42.600;23.470;2023-02-19T03:59:25;93365.06;;;7.42;75.00
6038;BME280;3047;42.600;23.470;2023-02-19T04:01:55;93364.25;;;7.40;76.49
6038;BME280;3047;42.600;23.470;2023-02-19T04:04:27;93370.22;;;7.33;76.77
6038;BME280;3047;42.600;23.470;2023-02-19T04:06:56;93342.72;;;7.19;75.73
6038;BME280;3047;42.600;23.470;2023-02-19T04:09:27;93373.53;;;7.35;75.68
6038;BME280;3047;42.600;23.470;2023-02-19T04:11:55;93373.50;;;7.37;75.64
6038;BME280;3047;42.600;23.470;2023-02-19T04:14:25;93368.53;;;7.32;76.38
6038;BME280;3047;42.600;23.470;2023-02-19T04:16:57;93360.13;;;7.35;77.12
6038;BME280;3047;42.600;23.470;2023-02-19T04:19:28;93350.16;;;7.27;76.59
6038;BME280;3047;42.600;23.470;2023-02-19T04:21:56;93373.41;;;7.44;75.77
6038;BME280;3047;42.600;23.470;2023-02-19T04:24:28;93376.75;;;7.47;76.34
6038;BME280;3047;42.600;23.470;2023-02-19T04:26:57;93383.47;;;7.43;74.46
6038;BME280;3047;42.600;23.470;2023-02-19T04:29:24;93379.25;;;7.47;74.62
6038;BME280;3047;42.600;23.470;2023-02-19T04:31:51;93380.13;;;7.46;75.46
6038;BME280;3047;42.600;23.470;2023-02-19T04:34:18;93389.22;;;7.54;76.00
6038;BME280;3047;42.600;23.470;2023-02-19T04:36:46;93383.31;;;7.57;75.34
6038;BME280;3047;42.600;23.470;2023-02-19T04:39:12;93378.38;;;7.51;75.47
6038;BME280;3047;42.600;23.470;2023-02-19T04:41:39;93385.06;;;7.52;74.60
6038;BME280;3047;42.600;23.470;2023-02-19T04:44:06;93367.53;;;7.47;75.34
6038;BME280;3047;42.600;23.470;2023-02-19T04:46:32;93331.56;;;7.42;72.90
6038;BME280;3047;42.600;23.470;2023-02-19T04:48:59;93393.94;;;7.77;72.56
6038;BME280;3047;42.600;23.470;2023-02-19T04:51:26;93380.28;;;7.98;69.69
6038;BME280;3047;42.600;23.470;2023-02-19T04:53:54;93387.56;;;8.13;69.91
6038;BME280;3047;42.600;23.470;2023-02-19T04:56:21;93392.44;;;8.27;69.51
6038;BME280;3047;42.600;23.470;2023-02-19T04:58:48;93392.31;;;8.33;69.41
6038;BME280;3047;42.600;23.470;2023-02-19T05:01:15;93396.22;;;8.56;68.26
6038;BME280;3047;42.600;23.470;2023-02-19T05:03:42;93395.31;;;8.58;68.14
6038;BME280;3047;42.600;23.470;2023-02-19T05:06:11;93384.09;;;8.79;67.29
6038;BME280;3047;42.600;23.470;2023-02-19T05:08:38;93362.28;;;8.77;66.39
6038;BME280;3047;42.600;23.470;2023-02-19T05:11:08;93402.38;;;8.89;67.82
6038;BME280;3047;42.600;23.470;2023-02-19T05:13:36;93402.09;;;9.06;66.87
6038;BME280;3047;42.600;23.470;2023-02-19T05:16:05;93337.97;;;8.76;66.17
6038;BME280;3047;42.600;23.470;2023-02-19T05:18:32;93402.78;;;9.15;65.93
6038;BME280;3047;42.600;23.470;2023-02-19T05:21:00;93410.00;;;9.32;65.91
6038;BME280;3047;42.600;23.470;2023-02-19T05:23:27;93408.97;;;9.43;64.91
6038;BME280;3047;42.600;23.470;2023-02-19T05:25:54;93405.28;;;9.60;64.57
6038;BME280;3047;42.600;23.470;2023-02-19T05:28:22;93417.13;;;9.57;65.56
6038;BME280;3047;42.600;23.470;2023-02-19T05:30:53;93399.56;;;9.51;64.89
6038;BME280;3047;42.600;23.470;2023-02-19T05:33:22;93393.88;;;9.41;65.08
6038;BME280;3047;42.600;23.470;2023-02-19T05:35:52;93419.41;;;9.69;64.66
6038;BME280;3047;42.600;23.470;2023-02-19T05:38:20;93427.75;;;9.73;65.69
6038;BME280;3047;42.600;23.470;2023-02-19T05:40:47;93425.75;;;9.87;65.21
6038;BME280;3047;42.600;23.470;2023-02-19T05:43:14;93418.22;;;9.85;64.13
6038;BME280;3047;42.600;23.470;2023-02-19T05:45:42;93414.06;;;9.83;65.05
6038;BME280;3047;42.600;23.470;2023-02-19T05:48:12;93436.66;;;9.89;64.73
6038;BME280;3047;42.600;23.470;2023-02-19T05:50:39;93432.50;;;9.86;65.13
6038;BME280;3047;42.600;23.470;2023-02-19T05:53:06;93441.50;;;9.98;65.11
6038;BME280;3047;42.600;23.470;2023-02-19T05:55:34;93433.78;;;10.04;65.01
6038;BME280;3047;42.600;23.470;2023-02-19T05:58:01;93431.41;;;9.98;65.31
6038;BME280;3047;42.600;23.470;2023-02-19T06:00:28;93435.50;;;10.04;64.64
6038;BME280;3047;42.600;23.470;2023-02-19T06:02:57;93408.91;;;9.87;64.49
6038;BME280;3047;42.600;23.470;2023-02-19T06:05:23;93400.47;;;9.90;65.29
6038;BME280;3047;42.600;23.470;2023-02-19T06:07:50;93446.94;;;10.20;64.49
6038;BME280;3047;42.600;23.470;2023-02-19T06:10:17;93454.28;;;10.32;64.09
6038;BME280;3047;42.600;23.470;2023-02-19T06:12:44;93449.88;;;10.40;64.00
6038;BME280;3047;42.600;23.470;2023-02-19T06:15:11;93419.00;;;10.29;64.16
6038;BME280;3047;42.600;23.470;2023-02-19T06:17:37;93452.00;;;10.59;64.32
6038;BME280;3047;42.600;23.470;2023-02-19T06:20:06;93452.72;;;10.66;63.13
6038;BME280;3047;42.600;23.470;2023-02-19T06:22:33;93444.94;;;10.73;62.56
6038;BME280;3047;42.600;23.470;2023-02-19T06:25:00;93460.38;;;10.97;61.75
6038;BME280;3047;42.600;23.470;2023-02-19T06:27:27;93445.91;;;11.03;62.07
6038;BME280;3047;42.600;23.470;2023-02-19T06:29:53;93457.38;;;11.17;61.22
6038;BME280;3047;42.600;23.470;2023-02-19T06:32:20;93448.19;;;11.14;60.78
6038;BME280;3047;42.600;23.470;2023-02-19T06:34:47;93455.59;;;11.20;61.86
6038;BME280;3047;42.600;23.470;2023-02-19T06:37:15;93451.63;;;11.11;61.24
6038;BME280;3047;42.600;23.470;2023-02-19T06:39:42;93462.50;;;11.13;61.79
6038;BME280;3047;42.600;23.470;2023-02-19T06:42:09;93457.56;;;11.09;60.73
6038;BME280;3047;42.600;23.470;2023-02-19T06:44:35;93469.13;;;11.18;61.98
6038;BME280;3047;42.600;23.470;2023-02-19T06:47:02;93446.75;;;11.04;61.33
6038;BME280;3047;42.600;23.470;2023-02-19T06:49:29;93479.13;;;11.24;62.03
6038;BME280;3047;42.600;23.470;2023-02-19T06:51:56;93475.53;;;11.32;62.15
6038;BME280;3047;42.600;23.470;2023-02-19T06:54:25;93469.72;;;11.61;60.63
6038;BME280;3047;42.600;23.470;2023-02-19T06:56:52;93474.31;;;11.80;60.38
6038;BME280;3047;42.600;23.470;2023-02-19T06:59:18;93476.13;;;12.07;60.12
6038;BME280;3047;42.600;23.470;2023-02-19T07:01:45;93478.94;;;12.26;58.95
6038;BME280;3047;42.600;23.470;2023-02-19T07:04:12;93476.72;;;12.45;58.60
6038;BME280;3047;42.600;23.470;2023-02-19T07:06:39;93439.91;;;12.33;57.37
6038;BME280;3047;42.600;23.470;2023-02-19T07:09:06;93478.94;;;12.56;57.21
6038;BME280;3047;42.600;23.470;2023-02-19T07:11:36;93473.38;;;12.71;56.97
6038;BME280;3047;42.600;23.470;2023-02-19T07:14:09;93475.75;;;12.77;56.08
6038;BME280;3047;42.600;23.470;2023-02-19T07:16:39;93478.56;;;12.68;56.44
6038;BME280;3047;42.600;23.470;2023-02-19T07:19:05;93477.69;;;12.69;56.73
6038;BME280;3047;42.600;23.470;2023-02-19T07:21:32;93477.09;;;12.89;56.59
6038;BME280;3047;42.600;23.470;2023-02-19T07:24:04;93457.19;;;12.77;55.88
6038;BME280;3047;42.600;23.470;2023-02-19T07:26:31;93465.09;;;12.94;55.47
6038;BME280;3047;42.600;23.470;2023-02-19T07:29:00;93462.44;;;13.25;54.46
6038;BME280;3047;42.600;23.470;2023-02-19T07:31:27;93458.44;;;13.43;53.97
6038;BME280;3047;42.600;23.470;2023-02-19T07:33:54;93455.84;;;13.95;52.82
6038;BME280;3047;42.600;23.470;2023-02-19T07:36:23;93439.47;;;14.49;51.57
6038;BME280;3047;42.600;23.470;2023-02-19T07:38:54;93435.75;;;15.01;49.09
6038;BME280;3047;42.600;23.470;2023-02-19T07:41:21;93433.53;;;15.55;48.80
6038;BME280;3047;42.600;23.470;2023-02-19T07:43:48;93445.41;;;15.76;47.32
6038;BME280;3047;42.600;23.470;2023-02-19T07:46:16;93453.59;;;15.83;47.77
6038;BME280;3047;42.600;23.470;2023-02-19T07:48:43;93451.47;;;15.74;46.60
6038;BME280;3047;42.600;23.470;2023-02-19T07:51:12;93444.81;;;15.29;47.85
6038;BME280;3047;42.600;23.470;2023-02-19T07:53:40;93444.50;;;14.94;49.71
6038;BME280;3047;42.600;23.470;2023-02-19T07:56:12;93369.06;;;14.05;50.23
6038;BME280;3047;42.600;23.470;2023-02-19T07:58:40;93443.91;;;14.20;51.73
6038;BME280;3047;42.600;23.470;2023-02-19T08:01:08;93427.06;;;13.94;52.09
6038;BME280;3047;42.600;23.470;2023-02-19T08:03:37;93445.16;;;13.85;52.23
6038;BME280;3047;42.600;23.470;2023-02-19T08:06:04;93423.84;;;13.66;52.89
6038;BME280;3047;42.600;23.470;2023-02-19T08:08:31;93441.97;;;13.80;52.69
6038;BME280;3047;42.600;23.470;2023-02-19T08:10:59;93404.53;;;13.62;53.33
6038;BME280;3047;42.600;23.470;2023-02-19T08:13:43;93439.47;;;13.78;53.74
6038;BME280;3047;42.600;23.470;2023-02-19T08:16:12;93439.97;;;13.88;53.09
6038;BME280;3047;42.600;23.470;2023-02-19T08:18:43;93404.41;;;13.65;53.46
6038;BME280;3047;42.600;23.470;2023-02-19T08:21:10;93404.34;;;13.43;53.69
6038;BME280;3047;42.600;23.470;2023-02-19T08:23:37;93451.75;;;13.41;53.84
6038;BME280;3047;42.600;23.470;2023-02-19T08:26:04;93448.50;;;13.10;55.08
6038;BME280;3047;42.600;23.470;2023-02-19T08:28:31;93460.66;;;13.01;55.77
6038;BME280;3047;42.600;23.470;2023-02-19T08:30:58;93456.69;;;12.92;56.35
6038;BME280;3047;42.600;23.470;2023-02-19T08:33:26;93456.06;;;12.85;56.98
6038;BME280;3047;42.600;23.470;2023-02-19T08:35:54;93440.81;;;12.59;58.72
6038;BME280;3047;42.600;23.470;2023-02-19T08:38:21;93452.38;;;12.68;58.83
6038;BME280;3047;42.600;23.470;2023-02-19T08:40:48;93459.00;;;12.72;58.99
6038;BME280;3047;42.600;23.470;2023-02-19T08:43:16;93463.16;;;12.74;58.08
6038;BME280;3047;42.600;23.470;2023-02-19T08:45:44;93474.28;;;12.70;58.34
6038;BME280;3047;42.600;23.470;2023-02-19T08:48:13;93458.56;;;12.59;59.77
6038;BME280;3047;42.600;23.470;2023-02-19T08:50:40;93456.97;;;12.56;60.83
6038;BME280;3047;42.600;23.470;2023-02-19T08:53:08;93455.88;;;12.63;60.11
6038;BME280;3047;42.600;23.470;2023-02-19T08:55:36;93422.69;;;12.45;60.13
6038;BME280;3047;42.600;23.470;2023-02-19T08:58:03;93442.16;;;12.43;59.25
6038;BME280;3047;42.600;23.470;2023-02-19T09:00:30;93452.13;;;12.49;59.51
6038;BME280;3047;42.600;23.470;2023-02-19T09:02:57;93441.00;;;12.53;58.31
6038;BME280;3047;42.600;23.470;2023-02-19T09:05:24;93434.91;;;12.58;57.33
6038;BME280;3047;42.600;23.470;2023-02-19T09:07:51;93431.75;;;12.52;58.06
6038;BME280;3047;42.600;23.470;2023-02-19T09:10:19;93428.06;;;12.62;57.86
6038;BME280;3047;42.600;23.470;2023-02-19T09:12:45;93433.31;;;12.56;58.14
6038;BME280;3047;42.600;23.470;2023-02-19T09:15:12;93394.47;;;12.27;57.92
6038;BME280;3047;42.600;23.470;2023-02-19T09:17:39;93425.91;;;12.50;58.67
6038;BME280;3047;42.600;23.470;2023-02-19T09:20:06;93424.25;;;12.49;59.10
6038;BME280;3047;42.600;23.470;2023-02-19T09:22:33;93415.69;;;12.53;58.80
6038;BME280;3047;42.600;23.470;2023-02-19T09:25:00;93417.28;;;12.55;58.30
6038;BME280;3047;42.600;23.470;2023-02-19T09:27:28;93420.66;;;12.56;57.93
6038;BME280;3047;42.600;23.470;2023-02-19T09:29:56;93411.28;;;12.58;59.14
6038;BME280;3047;42.600;23.470;2023-02-19T09:32:23;93399.41;;;12.60;60.28
6038;BME280;3047;42.600;23.470;2023-02-19T09:34:50;93339.72;;;12.23;59.60
6038;BME280;3047;42.600;23.470;2023-02-19T09:37:16;93408.91;;;12.53;59.22
6038;BME280;3047;42.600;23.470;2023-02-19T09:39:43;93409.56;;;12.60;58.01
6038;BME280;3047;42.600;23.470;2023-02-19T09:42:12;93400.97;;;12.64;58.36
6038;BME280;3047;42.600;23.470;2023-02-19T09:44:44;93352.91;;;12.34;58.89
6038;BME280;3047;42.600;23.470;2023-02-19T09:47:15;93399.06;;;12.71;58.23
6038;BME280;3047;42.600;23.470;2023-02-19T09:49:45;93360.25;;;12.42;57.75
6038;BME280;3047;42.600;23.470;2023-02-19T09:52:18;93400.38;;;12.82;58.16
6038;BME280;3047;42.600;23.470;2023-02-19T09:54:50;93391.06;;;12.83;57.05
6038;BME280;3047;42.600;23.470;2023-02-19T09:57:22;93394.19;;;12.91;59.80
6038;BME280;3047;42.600;23.470;2023-02-19T09:59:52;93392.22;;;12.99;59.26
6038;BME280;3047;42.600;23.470;2023-02-19T10:02:25;93388.19;;;12.94;59.58
6038;BME280;3047;42.600;23.470;2023-02-19T10:04:55;93379.06;;;12.88;59.13
6038;BME280;3047;42.600;23.470;2023-02-19T10:07:25;93342.97;;;12.81;58.29
6038;BME280;3047;42.600;23.470;2023-02-19T10:09:58;93367.53;;;13.04;56.64
6038;BME280;3047;42.600;23.470;2023-02-19T10:12:28;93336.84;;;13.12;57.04
6038;BME280;3047;42.600;23.470;2023-02-19T10:15:00;93359.19;;;13.27;57.97
6038;BME280;3047;42.600;23.470;2023-02-19T10:17:31;93355.72;;;13.30;56.46
6038;BME280;3047;42.600;23.470;2023-02-19T10:20:00;93342.53;;;13.44;57.24
6038;BME280;3047;42.600;23.470;2023-02-19T10:22:29;93341.00;;;13.40;57.39
6038;BME280;3047;42.600;23.470;2023-02-19T10:24:57;93291.81;;;13.19;58.08
6038;BME280;3047;42.600;23.470;2023-02-19T10:27:26;93331.03;;;13.58;58.45
6038;BME280;3047;42.600;23.470;2023-02-19T10:29:54;93322.53;;;13.59;57.14
6038;BME280;3047;42.600;23.470;2023-02-19T10:32:24;93319.88;;;13.63;57.91
6038;BME280;3047;42.600;23.470;2023-02-19T10:35:08;93319.59;;;13.70;58.59
6038;BME280;3047;42.600;23.470;2023-02-19T10:37:41;93316.06;;;13.74;58.67
6038;BME280;3047;42.600;23.470;2023-02-19T10:40:14;93290.69;;;13.74;58.53
6038;BME280;3047;42.600;23.470;2023-02-19T10:42:44;93300.28;;;13.90;58.84
6038;BME280;3047;42.600;23.470;2023-02-19T10:45:17;93250.81;;;13.76;57.38
6038;BME280;3047;42.600;23.470;2023-02-19T10:47:49;93251.50;;;13.81;59.92
6038;BME280;3047;42.600;23.470;2023-02-19T10:50:25;93206.69;;;13.58;57.03
6038;BME280;3047;42.600;23.470;2023-02-19T10:53:18;93075.75;;;12.87;56.37
6038;BME280;3047;42.600;23.470;2023-02-19T10:56:11;93014.78;;;12.68;54.93
6038;BME280;3047;42.600;23.470;2023-02-19T11:02:31;93153.72;;;13.71;55.62
6038;BME280;3047;42.600;23.470;2023-02-19T11:05:22;93251.47;;;14.46;57.53
6038;BME280;3047;42.600;23.470;2023-02-19T11:08:20;93066.13;;;13.61;54.67
6038;BME280;3047;42.600;23.470;2023-02-19T11:11:01;93201.56;;;14.65;55.52
6038;BME280;3047;42.600;23.470;2023-02-19T11:13:43;93188.56;;;14.92;54.45
6038;BME280;3047;42.600;23.470;2023-02-19T11:16:10;93235.84;;;15.35;53.16
6038;BME280;3047;42.600;23.470;2023-02-19T11:18:37;93226.97;;;15.63;54.77
6038;BME280;3047;42.600;23.470;2023-02-19T11:21:23;93204.34;;;15.75;50.07
6038;BME280;3047;42.600;23.470;2023-02-19T11:23:57;93199.41;;;16.09;48.23
6038;BME280;3047;42.600;23.470;2023-02-19T11:26:26;93220.16;;;16.36;50.75
6038;BME280;3047;42.600;23.470;2023-02-19T11:28:57;93210.41;;;16.44;47.87
6038;BME280;3047;42.600;23.470;2023-02-19T11:31:26;93208.50;;;16.49;47.64
6038;BME280;3047;42.600;23.470;2023-02-19T11:33:57;93209.38;;;16.65;47.91
6038;BME280;3047;42.600;23.470;2023-02-19T11:36:28;93190.09;;;16.77;49.10
6038;BME280;3047;42.600;23.470;2023-02-19T11:38:57;93198.66;;;17.09;46.83
6038;BME280;3047;42.600;23.470;2023-02-19T11:41:49;93202.50;;;17.18;46.91
6038;BME280;3047;42.600;23.470;2023-02-19T11:44:28;93185.44;;;17.18;46.22
6038;BME280;3047;42.600;23.470;2023-02-19T11:47:31;93158.31;;;17.00;45.49
6038;BME280;3047;42.600;23.470;2023-02-19T11:50:10;93185.38;;;17.36;47.04
6038;BME280;3047;42.600;23.470;2023-02-19T11:52:47;93152.03;;;17.39;44.75
6038;BME280;3047;42.600;23.470;2023-02-19T11:55:24;93171.53;;;17.55;43.04
6038;BME280;3047;42.600;23.470;2023-02-19T11:58:01;93152.19;;;17.51;43.85
6038;BME280;3047;42.600;23.470;2023-02-19T12:00:43;93156.13;;;17.73;44.90
6038;BME280;3047;42.600;23.470;2023-02-19T12:06:18;93158.84;;;17.86;44.13
6038;BME280;3047;42.600;23.470;2023-02-19T12:09:05;93138.19;;;17.74;42.63
6038;BME280;3047;42.600;23.470;2023-02-19T12:11:43;93149.03;;;17.78;43.69
6038;BME280;3047;42.600;23.470;2023-02-19T12:14:47;93130.44;;;17.76;43.89
6038;BME280;3047;42.600;23.470;2023-02-19T12:17:39;93146.56;;;17.92;43.73
6038;BME280;3047;42.600;23.470;2023-02-19T12:20:17;93113.03;;;17.83;44.48
6038;BME280;3047;42.600;23.470;2023-02-19T12:22:56;93133.34;;;18.00;42.53
6038;BME280;3047;42.600;23.470;2023-02-19T12:25:41;93125.41;;;18.04;44.59
6038;BME280;3047;42.600;23.470;2023-02-19T12:28:21;93122.22;;;18.01;45.90
6038;BME280;3047;42.600;23.470;2023-02-19T12:31:07;93109.59;;;17.98;44.87
6038;BME280;3047;42.600;23.470;2023-02-19T12:33:58;93117.75;;;18.04;42.92
6038;BME280;3047;42.600;23.470;2023-02-19T12:36:36;93112.09;;;17.99;42.88
6038;BME280;3047;42.600;23.470;2023-02-19T12:39:15;93107.47;;;17.90;43.64
6038;BME280;3047;42.600;23.470;2023-02-19T12:41:49;93099.91;;;17.89;43.46
6038;BME280;3047;42.600;23.470;2023-02-19T12:44:23;93065.88;;;17.72;42.30
6038;BME280;3047;42.600;23.470;2023-02-19T12:46:57;93085.50;;;17.88;43.72
6038;BME280;3047;42.600;23.470;2023-02-19T12:49:29;93014.28;;;17.51;43.60
6038;BME280;3047;42.600;23.470;2023-02-19T12:51:59;93077.81;;;17.88;43.04
6038;BME280;3047;42.600;23.470;2023-02-19T12:54:32;93069.25;;;17.89;44.80
6038;BME280;3047;42.600;23.470;2023-02-19T12:57:03;93040.09;;;17.77;46.79
6038;BME280;3047;42.600;23.470;2023-02-19T12:59:35;93059.56;;;17.94;46.49
6038;BME280;3047;42.600;23.470;2023-02-19T13:02:15;93061.31;;;17.93;46.39
6038;BME280;3047;42.600;23.470;2023-02-19T13:04:48;93057.66;;;17.97;41.48
6038;BME280;3047;42.600;23.470;2023-02-19T13:07:19;92972.22;;;17.43;44.71
6038;BME280;3047;42.600;23.470;2023-02-19T13:09:51;93010.94;;;17.65;44.31
6038;BME280;3047;42.600;23.470;2023-02-19T13:12:23;93046.34;;;17.87;41.79
6038;BME280;3047;42.600;23.470;2023-02-19T13:14:56;93010.38;;;17.60;43.05
6038;BME280;3047;42.600;23.470;2023-02-19T13:17:26;93032.38;;;17.78;41.82
6038;BME280;3047;42.600;23.470;2023-02-19T13:19:57;93030.22;;;17.71;44.92
6038;BME280;3047;42.600;23.470;2023-02-19T13:22:33;93028.91;;;17.64;46.80
6038;BME280;3047;42.600;23.470;2023-02-19T13:25:20;93016.91;;;17.50;46.28
6038;BME280;3047;42.600;23.470;2023-02-19T13:28:19;93019.72;;;17.45;46.87
6038;BME280;3047;42.600;23.470;2023-02-19T13:31:06;93016.09;;;17.34;46.38
6038;BME280;3047;42.600;23.470;2023-02-19T13:33:44;93006.75;;;17.18;47.05
6038;BME280;3047;42.600;23.470;2023-02-19T13:36:15;92969.66;;;16.81;47.85
6038;BME280;3047;42.600;23.470;2023-02-19T13:38:47;93001.28;;;16.94;48.89
6038;BME280;3047;42.600;23.470;2023-02-19T13:41:20;93000.19;;;16.83;48.76
6038;BME280;3047;42.600;23.470;2023-02-19T13:43:56;92989.16;;;16.66;49.23
6038;BME280;3047;42.600;23.470;2023-02-19T13:46:24;92995.81;;;16.53;49.55